createdAt,value
2017-04-02T00:00:41.749Z,0
2017-04-02T00:01:50.508Z,0
2017-04-02T00:02:59.571Z,0
2017-04-02T00:04:08.333Z,0
2017-04-02T00:05:17.030Z,0
2017-04-02T00:06:26.094Z,0
2017-04-02T00:07:34.855Z,0
2017-04-02T00:08:43.617Z,0
2017-04-02T00:09:52.690Z,0
2017-04-02T00:11:01.443Z,0
2017-04-02T00:12:10.200Z,0
2017-04-02T00:13:18.954Z,0
2017-04-02T00:14:27.825Z,0
2017-04-02T00:15:36.591Z,0
2017-04-02T00:16:45.351Z,0
2017-04-02T00:17:54.418Z,0
2017-04-02T00:19:03.487Z,0
2017-04-02T00:20:12.562Z,0
2017-04-02T00:21:21.565Z,0
2017-04-02T00:22:30.648Z,0
2017-04-02T00:23:39.415Z,0
2017-04-02T00:24:48.109Z,0
2017-04-02T00:25:56.872Z,0
2017-04-02T00:27:05.633Z,0
2017-04-02T00:28:14.398Z,0
2017-04-02T00:29:23.396Z,0
2017-04-02T00:30:32.400Z,0
2017-04-02T00:31:41.163Z,0
2017-04-02T00:32:50.434Z,0
2017-04-02T00:33:59.501Z,0
2017-04-02T00:35:08.201Z,0
2017-04-02T00:36:16.968Z,0
2017-04-02T00:37:25.733Z,0
2017-04-02T00:38:34.427Z,0
2017-04-02T00:39:43.498Z,0
2017-04-02T00:40:52.254Z,0
2017-04-02T00:42:00.948Z,0
2017-04-02T00:43:09.645Z,0
2017-04-02T00:44:18.402Z,0
2017-04-02T00:45:27.172Z,0
2017-04-02T00:46:35.933Z,0
2017-04-02T00:47:44.995Z,0
2017-04-02T00:48:53.763Z,0
2017-04-02T00:50:02.769Z,0
2017-04-02T00:51:11.815Z,0
2017-04-02T00:52:20.582Z,0
2017-04-02T00:53:29.350Z,0
2017-04-02T00:54:38.046Z,0
2017-04-02T00:55:46.744Z,0
2017-04-02T00:56:56.106Z,0
2017-04-02T00:58:04.861Z,0
2017-04-02T00:59:13.614Z,0
2017-04-02T01:00:22.378Z,0
2017-04-02T01:01:31.138Z,0
2017-04-02T01:02:39.902Z,0
2017-04-02T01:03:48.763Z,0
2017-04-02T01:04:57.531Z,0
2017-04-02T01:06:06.301Z,0
2017-04-02T01:07:15.370Z,0
2017-04-02T01:08:24.140Z,0
2017-04-02T01:09:32.910Z,0
2017-04-02T01:10:41.976Z,0
2017-04-02T01:11:51.344Z,0
2017-04-02T01:13:00.111Z,0
2017-04-02T01:14:08.868Z,0
2017-04-02T01:15:17.642Z,0
2017-04-02T01:16:26.395Z,0
2017-04-02T01:17:35.115Z,0
2017-04-02T01:18:43.856Z,0
2017-04-02T01:19:52.623Z,0
2017-04-02T01:21:01.688Z,0
2017-04-02T01:22:11.389Z,0
2017-04-02T01:23:20.155Z,0
2017-04-02T01:24:28.850Z,0
2017-04-02T01:25:37.923Z,0
2017-04-02T01:26:46.700Z,0
2017-04-02T01:27:55.462Z,0
2017-04-02T01:29:04.462Z,0
2017-04-02T01:30:13.220Z,0
2017-04-02T01:31:21.913Z,0
2017-04-02T01:32:30.605Z,0
2017-04-02T01:33:39.298Z,0
2017-04-02T01:34:48.063Z,0
2017-04-02T01:35:56.835Z,0
2017-04-02T01:37:05.835Z,0
2017-04-02T01:38:14.598Z,0
2017-04-02T01:39:23.361Z,0
2017-04-02T01:40:32.126Z,0
2017-04-02T01:41:40.884Z,0
2017-04-02T01:42:49.644Z,0
2017-04-02T01:43:58.401Z,0
2017-04-02T01:45:07.404Z,0
2017-04-02T01:46:16.168Z,0
2017-04-02T01:47:24.857Z,0
2017-04-02T01:48:33.915Z,0
2017-04-02T01:49:42.676Z,0
2017-04-02T01:50:51.439Z,0
2017-04-02T01:52:00.234Z,0
2017-04-02T01:53:08.941Z,0
2017-04-02T01:54:17.634Z,0
2017-04-02T01:55:26.716Z,0
2017-04-02T01:56:35.484Z,0
2017-04-02T01:57:44.245Z,0
2017-04-02T01:58:53.011Z,0
2017-04-02T02:00:01.785Z,0
2017-04-02T02:01:10.859Z,0
2017-04-02T02:02:19.553Z,0
2017-04-02T02:03:28.633Z,0
2017-04-02T02:04:37.398Z,0
2017-04-02T02:05:46.173Z,0
2017-04-02T02:06:54.939Z,0
2017-04-02T02:08:03.935Z,0
2017-04-02T02:09:12.691Z,0
2017-04-02T02:10:21.386Z,0
2017-04-02T02:11:30.147Z,0
2017-04-02T02:12:38.905Z,0
2017-04-02T02:13:47.663Z,0
2017-04-02T02:14:56.414Z,0
2017-04-02T02:16:05.103Z,0
2017-04-02T02:17:13.872Z,0
2017-04-02T02:18:22.631Z,0
2017-04-02T02:19:31.392Z,0
2017-04-02T02:20:40.146Z,0
2017-04-02T02:21:49.213Z,0
2017-04-02T02:22:57.980Z,0
2017-04-02T02:24:07.047Z,0
2017-04-02T02:25:15.812Z,0
2017-04-02T02:26:24.870Z,0
2017-04-02T02:27:33.937Z,0
2017-04-02T02:28:42.694Z,0
2017-04-02T02:29:51.756Z,0
2017-04-02T02:31:00.527Z,0
2017-04-02T02:32:09.327Z,0
2017-04-02T02:33:18.080Z,0
2017-04-02T02:34:27.154Z,0
2017-04-02T02:35:36.215Z,0
2017-04-02T02:36:45.270Z,0
2017-04-02T02:37:54.038Z,0
2017-04-02T02:39:02.796Z,0
2017-04-02T02:40:11.548Z,0
2017-04-02T02:41:20.623Z,0
2017-04-02T02:42:29.377Z,0
2017-04-02T02:43:38.149Z,0
2017-04-02T02:44:46.907Z,0
2017-04-02T02:45:55.686Z,0
2017-04-02T02:47:04.506Z,0
2017-04-02T02:48:13.260Z,0
2017-04-02T02:49:22.021Z,0
2017-04-02T02:50:31.381Z,0
2017-04-02T02:51:40.447Z,0
2017-04-02T02:52:49.149Z,0
2017-04-02T02:53:57.903Z,0
2017-04-02T02:55:06.662Z,0
2017-04-02T02:56:15.431Z,0
2017-04-02T02:57:24.189Z,0
2017-04-02T02:58:33.199Z,0
2017-04-02T02:59:41.967Z,0
2017-04-02T03:00:50.732Z,0
2017-04-02T03:01:59.796Z,0
2017-04-02T03:03:08.800Z,0
2017-04-02T03:04:17.549Z,0
2017-04-02T03:05:26.290Z,0
2017-04-02T03:06:34.983Z,0
2017-04-02T03:07:43.735Z,0
2017-04-02T03:08:52.496Z,0
2017-04-02T03:10:01.258Z,0
2017-04-02T03:11:10.014Z,0
2017-04-02T03:12:19.071Z,0
2017-04-02T03:13:28.134Z,0
2017-04-02T03:14:37.186Z,0
2017-04-02T03:15:46.262Z,0
2017-04-02T03:16:55.259Z,0
2017-04-02T03:18:04.047Z,0
2017-04-02T03:19:12.807Z,0
2017-04-02T03:20:21.569Z,0
2017-04-02T03:21:30.259Z,0
2017-04-02T03:22:39.317Z,0
2017-04-02T03:23:48.069Z,0
2017-04-02T03:24:56.825Z,0
2017-04-02T03:26:05.569Z,0
2017-04-02T03:27:14.262Z,0
2017-04-02T03:28:23.019Z,0
2017-04-02T03:29:31.985Z,0
2017-04-02T03:30:40.740Z,0
2017-04-02T03:31:49.809Z,0
2017-04-02T03:32:58.566Z,0
2017-04-02T03:34:07.261Z,0
2017-04-02T03:35:16.521Z,0
2017-04-02T03:36:25.279Z,0
2017-04-02T03:37:34.242Z,0
2017-04-02T03:38:43.000Z,0
2017-04-02T03:39:52.301Z,0
2017-04-02T03:41:01.062Z,0
2017-04-02T03:42:09.755Z,0
2017-04-02T03:43:18.815Z,0
2017-04-02T03:44:27.882Z,0
2017-04-02T03:45:36.635Z,0
2017-04-02T03:46:45.705Z,0
2017-04-02T03:47:54.465Z,0
2017-04-02T03:49:03.531Z,0
2017-04-02T03:50:12.291Z,0
2017-04-02T03:51:21.351Z,0
2017-04-02T03:52:30.197Z,0
2017-04-02T03:53:39.191Z,0
2017-04-02T03:54:47.917Z,0
2017-04-02T03:55:56.680Z,0
2017-04-02T03:57:05.745Z,0
2017-04-02T03:58:14.804Z,0
2017-04-02T03:59:23.595Z,0
2017-04-02T04:00:32.657Z,0
2017-04-02T04:01:41.680Z,0
2017-04-02T04:02:50.438Z,0
2017-04-02T04:03:59.134Z,0
2017-04-02T04:05:08.234Z,0
2017-04-02T04:06:17.006Z,0
2017-04-02T04:07:25.769Z,0
2017-04-02T04:08:34.676Z,0
2017-04-02T04:09:43.441Z,0
2017-04-02T04:10:52.202Z,0
2017-04-02T04:12:00.903Z,0
2017-04-02T04:13:09.672Z,0
2017-04-02T04:14:18.363Z,0
2017-04-02T04:15:27.425Z,0
2017-04-02T04:16:36.483Z,0
2017-04-02T04:17:45.240Z,0
2017-04-02T04:18:54.000Z,0
2017-04-02T04:20:02.769Z,0
2017-04-02T04:21:11.842Z,0
2017-04-02T04:22:20.909Z,0
2017-04-02T04:23:29.594Z,0
2017-04-02T04:24:38.347Z,0
2017-04-02T04:25:47.038Z,0
2017-04-02T04:26:56.105Z,0
2017-04-02T04:28:04.865Z,0
2017-04-02T04:29:13.629Z,0
2017-04-02T04:30:22.630Z,0
2017-04-02T04:31:31.314Z,0
2017-04-02T04:32:40.371Z,0
2017-04-02T04:33:49.263Z,0
2017-04-02T04:34:57.996Z,0
2017-04-02T04:36:07.380Z,0
2017-04-02T04:37:16.478Z,0
2017-04-02T04:38:25.541Z,0
2017-04-02T04:39:34.301Z,0
2017-04-02T04:40:43.060Z,0
2017-04-02T04:41:51.826Z,0
2017-04-02T04:43:00.576Z,0
2017-04-02T04:44:09.644Z,0
2017-04-02T04:45:18.717Z,0
2017-04-02T04:46:27.481Z,0
2017-04-02T04:47:36.276Z,0
2017-04-02T04:48:45.038Z,0
2017-04-02T04:49:53.842Z,0
2017-04-02T04:51:03.142Z,0
2017-04-02T04:52:12.205Z,0
2017-04-02T04:53:21.005Z,0
2017-04-02T04:54:29.759Z,0
2017-04-02T04:55:39.128Z,0
2017-04-02T04:56:47.891Z,0
2017-04-02T04:57:56.864Z,0
2017-04-02T04:59:05.630Z,0
2017-04-02T05:00:14.388Z,0
2017-04-02T05:01:23.431Z,0
2017-04-02T05:02:32.423Z,0
2017-04-02T05:03:41.174Z,0
2017-04-02T05:04:49.934Z,0
2017-04-02T05:05:58.927Z,0
2017-04-02T05:07:07.630Z,0
2017-04-02T05:08:16.360Z,0
2017-04-02T05:09:25.118Z,0
2017-04-02T05:10:33.881Z,0
2017-04-02T05:11:42.941Z,0
2017-04-02T05:12:51.696Z,0
2017-04-02T05:14:00.453Z,0
2017-04-02T05:15:09.514Z,0
2017-04-02T05:16:18.286Z,0
2017-04-02T05:17:27.080Z,0
2017-04-02T05:18:36.441Z,0
2017-04-02T05:19:45.204Z,0
2017-04-02T05:20:53.962Z,0
2017-04-02T05:22:03.323Z,0
2017-04-02T05:23:12.901Z,0
2017-04-02T05:24:21.657Z,0
2017-04-02T05:25:30.728Z,0
2017-04-02T05:26:39.493Z,0
2017-04-02T05:27:48.565Z,0
2017-04-02T05:28:57.322Z,0
2017-04-02T05:30:06.688Z,5
2017-04-02T05:31:15.452Z,5
2017-04-02T05:32:24.219Z,5
2017-04-02T05:33:33.611Z,5
2017-04-02T05:34:42.370Z,5
2017-04-02T05:35:51.436Z,5
2017-04-02T05:37:00.209Z,5
2017-04-02T05:38:08.972Z,5
2017-04-02T05:39:17.728Z,5
2017-04-02T05:40:26.482Z,5
2017-04-02T05:41:35.239Z,5
2017-04-02T05:42:43.988Z,5
2017-04-02T05:43:52.743Z,5
2017-04-02T05:45:01.501Z,5
2017-04-02T05:46:10.297Z,5
2017-04-02T05:47:19.075Z,5
2017-04-02T05:48:27.835Z,5
2017-04-02T05:49:36.597Z,5
2017-04-02T05:50:45.294Z,10
2017-04-02T05:51:54.347Z,10
2017-04-02T05:53:03.111Z,10
2017-04-02T05:54:11.858Z,10
2017-04-02T05:55:20.616Z,10
2017-04-02T05:56:29.724Z,10
2017-04-02T05:57:38.482Z,10
2017-04-02T05:58:47.239Z,10
2017-04-02T05:59:56.008Z,10
2017-04-02T06:01:04.777Z,5
2017-04-02T06:02:13.547Z,10
2017-04-02T06:03:22.358Z,10
2017-04-02T06:04:31.209Z,10
2017-04-02T06:05:39.939Z,10
2017-04-02T06:06:48.699Z,10
2017-04-02T06:07:57.462Z,10
2017-04-02T06:09:06.457Z,10
2017-04-02T06:10:15.515Z,15
2017-04-02T06:11:24.328Z,15
2017-04-02T06:12:33.396Z,15
2017-04-02T06:13:42.153Z,15
2017-04-02T06:14:51.215Z,15
2017-04-02T06:16:00.274Z,15
2017-04-02T06:17:09.006Z,20
2017-04-02T06:18:17.770Z,25
2017-04-02T06:19:26.460Z,25
2017-04-02T06:20:35.189Z,25
2017-04-02T06:21:44.556Z,25
2017-04-02T06:22:53.609Z,25
2017-04-02T06:24:02.301Z,35
2017-04-02T06:25:11.070Z,35
2017-04-02T06:26:20.025Z,35
2017-04-02T06:27:29.011Z,30
2017-04-02T06:28:37.872Z,35
2017-04-02T06:29:46.606Z,40
2017-04-02T06:30:55.628Z,40
2017-04-02T06:32:04.327Z,40
2017-04-02T06:33:13.021Z,35
2017-04-02T06:34:21.983Z,35
2017-04-02T06:35:31.051Z,35
2017-04-02T06:36:40.111Z,40
2017-04-02T06:37:48.999Z,45
2017-04-02T06:38:57.755Z,45
2017-04-02T06:40:06.813Z,45
2017-04-02T06:41:15.504Z,45
2017-04-02T06:42:24.245Z,40
2017-04-02T06:43:33.007Z,40
2017-04-02T06:44:41.733Z,40
2017-04-02T06:45:50.434Z,45
2017-04-02T06:46:59.191Z,50
2017-04-02T06:48:07.943Z,45
2017-04-02T06:49:16.699Z,45
2017-04-02T06:50:25.403Z,45
2017-04-02T06:51:34.766Z,50
2017-04-02T06:52:43.463Z,50
2017-04-02T06:53:52.426Z,55
2017-04-02T06:55:01.180Z,60
2017-04-02T06:56:10.543Z,65
2017-04-02T06:57:19.601Z,70
2017-04-02T06:58:28.356Z,70
2017-04-02T06:59:37.048Z,75
2017-04-02T07:00:45.815Z,65
2017-04-02T07:01:54.883Z,75
2017-04-02T07:03:04.261Z,70
2017-04-02T07:04:13.026Z,80
2017-04-02T07:05:22.130Z,80
2017-04-02T07:06:31.198Z,75
2017-04-02T07:07:39.955Z,80
2017-04-02T07:08:48.720Z,90
2017-04-02T07:09:57.479Z,140
2017-04-02T07:11:06.470Z,150
2017-04-02T07:12:15.536Z,195
2017-04-02T07:13:24.236Z,195
2017-04-02T07:14:33.228Z,240
2017-04-02T07:15:42.298Z,270
2017-04-02T07:16:51.400Z,270
2017-04-02T07:18:00.157Z,270
2017-04-02T07:19:09.230Z,240
2017-04-02T07:20:18.200Z,235
2017-04-02T07:21:26.956Z,255
2017-04-02T07:22:35.729Z,270
2017-04-02T07:23:44.503Z,300
2017-04-02T07:24:53.199Z,300
2017-04-02T07:26:01.957Z,305
2017-04-02T07:27:10.715Z,315
2017-04-02T07:28:19.410Z,295
2017-04-02T07:29:28.165Z,295
2017-04-02T07:30:37.057Z,195
2017-04-02T07:31:46.125Z,125
2017-04-02T07:32:54.891Z,120
2017-04-02T07:34:03.889Z,115
2017-04-02T07:35:12.650Z,110
2017-04-02T07:36:21.405Z,120
2017-04-02T07:37:30.174Z,125
2017-04-02T07:38:38.930Z,130
2017-04-02T07:39:48.001Z,130
2017-04-02T07:40:57.265Z,130
2017-04-02T07:42:06.339Z,120
2017-04-02T07:43:15.098Z,120
2017-04-02T07:44:23.860Z,120
2017-04-02T07:45:32.853Z,110
2017-04-02T07:46:41.617Z,125
2017-04-02T07:47:50.421Z,135
2017-04-02T07:48:59.786Z,135
2017-04-02T07:50:08.549Z,135
2017-04-02T07:51:17.620Z,130
2017-04-02T07:52:26.379Z,135
2017-04-02T07:53:35.135Z,145
2017-04-02T07:54:43.896Z,145
2017-04-02T07:55:52.975Z,145
2017-04-02T07:57:01.741Z,150
2017-04-02T07:58:10.715Z,145
2017-04-02T07:59:19.472Z,150
2017-04-02T08:00:28.238Z,150
2017-04-02T08:01:37.302Z,155
2017-04-02T08:02:46.375Z,160
2017-04-02T08:03:55.143Z,155
2017-04-02T08:05:03.877Z,150
2017-04-02T08:06:12.639Z,150
2017-04-02T08:07:21.386Z,150
2017-04-02T08:08:30.352Z,155
2017-04-02T08:09:39.365Z,155
2017-04-02T08:10:48.060Z,155
2017-04-02T08:11:56.814Z,140
2017-04-02T08:13:05.590Z,145
2017-04-02T08:14:14.363Z,150
2017-04-02T08:15:23.050Z,150
2017-04-02T08:16:31.807Z,150
2017-04-02T08:17:40.499Z,155
2017-04-02T08:18:49.566Z,155
2017-04-02T08:19:58.328Z,155
2017-04-02T08:21:07.095Z,150
2017-04-02T08:22:16.160Z,100
2017-04-02T08:23:25.233Z,90
2017-04-02T08:24:33.994Z,90
2017-04-02T08:25:42.759Z,125
2017-04-02T08:26:51.519Z,155
2017-04-02T08:28:00.271Z,160
2017-04-02T08:29:09.037Z,160
2017-04-02T08:30:17.808Z,150
2017-04-02T08:31:26.569Z,165
2017-04-02T08:32:35.733Z,160
2017-04-02T08:33:44.697Z,120
2017-04-02T08:34:53.455Z,130
2017-04-02T08:36:02.216Z,155
2017-04-02T08:37:10.924Z,95
2017-04-02T08:38:20.006Z,95
2017-04-02T08:39:28.769Z,100
2017-04-02T08:40:37.829Z,155
2017-04-02T08:41:46.521Z,165
2017-04-02T08:42:55.274Z,165
2017-04-02T08:44:04.041Z,155
2017-04-02T08:45:12.799Z,155
2017-04-02T08:46:22.175Z,160
2017-04-02T08:47:30.917Z,175
2017-04-02T08:48:39.938Z,180
2017-04-02T08:49:49.306Z,185
2017-04-02T08:50:58.066Z,190
2017-04-02T08:52:07.136Z,195
2017-04-02T08:53:15.902Z,175
2017-04-02T08:54:24.665Z,130
2017-04-02T08:55:33.577Z,110
2017-04-02T08:56:42.346Z,135
2017-04-02T08:57:51.114Z,200
2017-04-02T08:58:59.869Z,200
2017-04-02T09:00:08.628Z,205
2017-04-02T09:01:17.387Z,130
2017-04-02T09:02:26.468Z,145
2017-04-02T09:03:35.236Z,130
2017-04-02T09:04:44.338Z,125
2017-04-02T09:05:53.099Z,115
2017-04-02T09:07:02.057Z,100
2017-04-02T09:08:10.817Z,90
2017-04-02T09:09:19.889Z,75
2017-04-02T09:10:28.949Z,65
2017-04-02T09:11:38.113Z,65
2017-04-02T09:12:46.881Z,65
2017-04-02T09:13:55.642Z,65
2017-04-02T09:15:04.402Z,70
2017-04-02T09:16:13.162Z,95
2017-04-02T09:17:21.927Z,100
2017-04-02T09:18:30.726Z,95
2017-04-02T09:19:40.699Z,70
2017-04-02T09:20:50.065Z,65
2017-04-02T09:21:59.138Z,70
2017-04-02T09:23:07.845Z,80
2017-04-02T09:24:17.222Z,100
2017-04-02T09:25:26.295Z,125
2017-04-02T09:26:35.666Z,230
2017-04-02T09:27:44.424Z,255
2017-04-02T09:28:53.189Z,340
2017-04-02T09:30:02.254Z,1050
2017-04-02T09:31:10.950Z,1115
2017-04-02T09:32:19.714Z,1065
2017-04-02T09:33:28.791Z,1095
2017-04-02T09:34:37.555Z,1105
2017-04-02T09:35:46.311Z,1135
2017-04-02T09:36:55.353Z,1130
2017-04-02T09:38:04.119Z,1035
2017-04-02T09:39:12.887Z,1110
2017-04-02T09:40:21.647Z,975
2017-04-02T09:41:30.962Z,1045
2017-04-02T09:42:39.716Z,1000
2017-04-02T09:43:48.411Z,245
2017-04-02T09:44:57.686Z,135
2017-04-02T09:46:07.058Z,140
2017-04-02T09:47:15.818Z,700
2017-04-02T09:48:24.861Z,1085
2017-04-02T09:49:33.927Z,800
2017-04-02T09:50:42.702Z,705
2017-04-02T09:51:51.467Z,1255
2017-04-02T09:53:00.235Z,1250
2017-04-02T09:54:09.000Z,1235
2017-04-02T09:55:17.762Z,1225
2017-04-02T09:56:26.826Z,800
2017-04-02T09:57:35.939Z,1160
2017-04-02T09:58:44.697Z,1275
2017-04-02T09:59:53.392Z,1270
2017-04-02T10:01:02.165Z,1060
2017-04-02T10:02:10.929Z,165
2017-04-02T10:03:19.689Z,155
2017-04-02T10:04:28.759Z,115
2017-04-02T10:05:37.456Z,115
2017-04-02T10:06:46.218Z,115
2017-04-02T10:07:54.989Z,125
2017-04-02T10:09:04.360Z,110
2017-04-02T10:10:13.361Z,145
2017-04-02T10:11:22.134Z,685
2017-04-02T10:12:31.214Z,675
2017-04-02T10:13:40.172Z,1315
2017-04-02T10:14:49.197Z,1375
2017-04-02T10:15:58.499Z,1365
2017-04-02T10:17:07.256Z,1320
2017-04-02T10:18:16.019Z,1325
2017-04-02T10:19:24.787Z,1345
2017-04-02T10:20:33.864Z,1385
2017-04-02T10:21:42.911Z,1200
2017-04-02T10:22:51.714Z,1380
2017-04-02T10:24:00.784Z,560
2017-04-02T10:25:09.541Z,160
2017-04-02T10:26:18.309Z,210
2017-04-02T10:27:27.284Z,100
2017-04-02T10:28:36.240Z,85
2017-04-02T10:29:44.996Z,65
2017-04-02T10:30:53.751Z,65
2017-04-02T10:32:02.512Z,70
2017-04-02T10:33:11.210Z,75
2017-04-02T10:34:19.969Z,75
2017-04-02T10:35:29.032Z,85
2017-04-02T10:36:38.131Z,105
2017-04-02T10:37:47.199Z,100
2017-04-02T10:38:56.196Z,100
2017-04-02T10:40:04.955Z,90
2017-04-02T10:41:14.015Z,80
2017-04-02T10:42:22.708Z,75
2017-04-02T10:43:31.511Z,70
2017-04-02T10:44:40.360Z,75
2017-04-02T10:45:50.038Z,85
2017-04-02T10:46:58.799Z,95
2017-04-02T10:48:07.561Z,105
2017-04-02T10:49:16.328Z,125
2017-04-02T10:50:25.040Z,135
2017-04-02T10:51:34.258Z,160
2017-04-02T10:52:43.319Z,150
2017-04-02T10:53:52.074Z,130
2017-04-02T10:55:01.140Z,120
2017-04-02T10:56:10.206Z,125
2017-04-02T10:57:19.277Z,135
2017-04-02T10:58:28.341Z,480
2017-04-02T10:59:37.102Z,615
2017-04-02T11:00:45.796Z,750
2017-04-02T11:01:54.863Z,1050
2017-04-02T11:03:03.616Z,1260
2017-04-02T11:04:12.376Z,1085
2017-04-02T11:05:21.139Z,955
2017-04-02T11:06:30.197Z,610
2017-04-02T11:07:39.198Z,455
2017-04-02T11:08:47.957Z,305
2017-04-02T11:09:56.724Z,370
2017-04-02T11:11:06.086Z,600
2017-04-02T11:12:14.846Z,870
2017-04-02T11:13:23.599Z,1010
2017-04-02T11:14:32.369Z,650
2017-04-02T11:15:41.131Z,755
2017-04-02T11:16:49.893Z,1050
2017-04-02T11:17:58.589Z,1190
2017-04-02T11:19:07.353Z,1280
2017-04-02T11:20:16.108Z,1260
2017-04-02T11:21:24.864Z,1530
2017-04-02T11:22:33.568Z,1185
2017-04-02T11:23:42.338Z,765
2017-04-02T11:24:51.094Z,1125
2017-04-02T11:25:59.853Z,945
2017-04-02T11:27:08.922Z,580
2017-04-02T11:28:17.680Z,270
2017-04-02T11:29:26.441Z,230
2017-04-02T11:30:35.443Z,710
2017-04-02T11:31:44.137Z,385
2017-04-02T11:32:52.891Z,470
2017-04-02T11:34:01.962Z,195
2017-04-02T11:35:10.715Z,170
2017-04-02T11:36:19.781Z,145
2017-04-02T11:37:28.844Z,140
2017-04-02T11:38:37.607Z,120
2017-04-02T11:39:46.365Z,140
2017-04-02T11:40:55.135Z,255
2017-04-02T11:42:03.907Z,860
2017-04-02T11:43:12.874Z,980
2017-04-02T11:44:21.636Z,365
2017-04-02T11:45:30.396Z,735
2017-04-02T11:46:39.411Z,1260
2017-04-02T11:47:48.171Z,1215
2017-04-02T11:48:56.933Z,485
2017-04-02T11:50:05.695Z,1145
2017-04-02T11:51:14.459Z,1290
2017-04-02T11:52:23.233Z,265
2017-04-02T11:53:32.137Z,980
2017-04-02T11:54:40.897Z,1180
2017-04-02T11:55:49.655Z,870
2017-04-02T11:56:58.419Z,1215
2017-04-02T11:58:07.456Z,1130
2017-04-02T11:59:16.216Z,1135
2017-04-02T12:00:24.924Z,1215
2017-04-02T12:01:33.706Z,1220
2017-04-02T12:02:42.472Z,1225
2017-04-02T12:03:51.230Z,1210
2017-04-02T12:05:00.302Z,630
2017-04-02T12:06:09.063Z,225
2017-04-02T12:07:17.829Z,215
2017-04-02T12:08:26.895Z,205
2017-04-02T12:09:35.961Z,195
2017-04-02T12:10:44.718Z,190
2017-04-02T12:11:53.496Z,190
2017-04-02T12:13:02.262Z,185
2017-04-02T12:14:11.017Z,175
2017-04-02T12:15:19.714Z,185
2017-04-02T12:16:28.484Z,210
2017-04-02T12:17:37.238Z,205
2017-04-02T12:18:46.615Z,190
2017-04-02T12:19:55.689Z,160
2017-04-02T12:21:04.450Z,150
2017-04-02T12:22:13.213Z,145
2017-04-02T12:23:22.320Z,140
2017-04-02T12:24:31.088Z,175
2017-04-02T12:25:40.044Z,165
2017-04-02T12:26:49.119Z,175
2017-04-02T12:27:58.200Z,170
2017-04-02T12:29:06.906Z,170
2017-04-02T12:30:15.670Z,155
2017-04-02T12:31:24.440Z,135
2017-04-02T12:32:33.200Z,125
2017-04-02T12:33:42.056Z,115
2017-04-02T12:34:51.422Z,105
2017-04-02T12:36:00.319Z,115
2017-04-02T12:37:09.013Z,150
2017-04-02T12:38:17.771Z,165
2017-04-02T12:39:26.523Z,185
2017-04-02T12:40:35.216Z,180
2017-04-02T12:41:43.907Z,150
2017-04-02T12:42:52.662Z,145
2017-04-02T12:44:01.358Z,115
2017-04-02T12:45:10.153Z,90
2017-04-02T12:46:18.911Z,85
2017-04-02T12:47:27.610Z,75
2017-04-02T12:48:36.371Z,75
2017-04-02T12:49:45.433Z,75
2017-04-02T12:50:54.221Z,75
2017-04-02T12:52:02.994Z,75
2017-04-02T12:53:11.754Z,70
2017-04-02T12:54:20.826Z,65
2017-04-02T12:55:29.590Z,60
2017-04-02T12:56:38.360Z,60
2017-04-02T12:57:47.153Z,60
2017-04-02T12:58:56.163Z,65
2017-04-02T13:00:04.916Z,85
2017-04-02T13:01:13.678Z,90
2017-04-02T13:02:22.431Z,90
2017-04-02T13:03:31.194Z,85
2017-04-02T13:04:39.948Z,85
2017-04-02T13:05:48.713Z,100
2017-04-02T13:06:57.475Z,105
2017-04-02T13:08:06.527Z,110
2017-04-02T13:09:15.570Z,120
2017-04-02T13:10:24.331Z,120
2017-04-02T13:11:33.406Z,125
2017-04-02T13:12:42.173Z,130
2017-04-02T13:13:51.145Z,125
2017-04-02T13:15:00.214Z,115
2017-04-02T13:16:09.896Z,110
2017-04-02T13:17:18.973Z,100
2017-04-02T13:18:28.032Z,95
2017-04-02T13:19:36.789Z,95
2017-04-02T13:20:45.548Z,80
2017-04-02T13:21:54.620Z,80
2017-04-02T13:23:03.682Z,85
2017-04-02T13:24:12.443Z,100
2017-04-02T13:25:21.185Z,105
2017-04-02T13:26:29.947Z,115
2017-04-02T13:27:38.809Z,120
2017-04-02T13:28:47.556Z,120
2017-04-02T13:29:56.324Z,105
2017-04-02T13:31:05.393Z,90
2017-04-02T13:32:14.460Z,85
2017-04-02T13:33:23.180Z,85
2017-04-02T13:34:31.943Z,85
2017-04-02T13:35:41.301Z,85
2017-04-02T13:36:50.358Z,80
2017-04-02T13:37:59.118Z,90
2017-04-02T13:39:07.877Z,85
2017-04-02T13:40:16.636Z,80
2017-04-02T13:41:25.600Z,95
2017-04-02T13:42:34.296Z,95
2017-04-02T13:43:42.985Z,85
2017-04-02T13:44:51.754Z,75
2017-04-02T13:46:00.507Z,70
2017-04-02T13:47:09.271Z,65
2017-04-02T13:48:18.033Z,65
2017-04-02T13:49:26.794Z,65
2017-04-02T13:50:35.489Z,70
2017-04-02T13:51:44.686Z,70
2017-04-02T13:52:53.443Z,65
2017-04-02T13:54:02.504Z,70
2017-04-02T13:55:11.604Z,75
2017-04-02T13:56:20.364Z,75
2017-04-02T13:57:29.116Z,80
2017-04-02T13:58:37.873Z,85
2017-04-02T13:59:46.636Z,85
2017-04-02T14:00:55.737Z,85
2017-04-02T14:02:04.491Z,80
2017-04-02T14:03:13.247Z,80
2017-04-02T14:04:22.018Z,80
2017-04-02T14:05:31.075Z,75
2017-04-02T14:06:39.877Z,75
2017-04-02T14:07:48.573Z,75
2017-04-02T14:08:57.333Z,70
2017-04-02T14:10:06.712Z,70
2017-04-02T14:11:15.475Z,65
2017-04-02T14:12:24.199Z,65
2017-04-02T14:13:33.260Z,60
2017-04-02T14:14:42.334Z,60
2017-04-02T14:15:51.095Z,60
2017-04-02T14:17:00.150Z,60
2017-04-02T14:18:08.915Z,60
2017-04-02T14:19:17.677Z,60
2017-04-02T14:20:26.438Z,60
2017-04-02T14:21:35.500Z,60
2017-04-02T14:22:44.284Z,60
2017-04-02T14:23:53.280Z,60
2017-04-02T14:25:02.041Z,50
2017-04-02T14:26:10.739Z,50
2017-04-02T14:27:20.113Z,50
2017-04-02T14:28:28.805Z,50
2017-04-02T14:29:37.576Z,45
2017-04-02T14:30:46.329Z,50
2017-04-02T14:31:55.122Z,50
2017-04-02T14:33:04.117Z,40
2017-04-02T14:34:13.180Z,40
2017-04-02T14:35:21.947Z,40
2017-04-02T14:36:31.012Z,40
2017-04-02T14:37:39.776Z,45
2017-04-02T14:38:48.529Z,40
2017-04-02T14:39:57.287Z,40
2017-04-02T14:41:06.044Z,45
2017-04-02T14:42:14.807Z,45
2017-04-02T14:43:23.564Z,45
2017-04-02T14:44:32.372Z,45
2017-04-02T14:45:41.133Z,45
2017-04-02T14:46:50.192Z,45
2017-04-02T14:47:58.947Z,45
2017-04-02T14:49:07.711Z,45
2017-04-02T14:50:16.410Z,45
2017-04-02T14:51:25.103Z,40
2017-04-02T14:52:33.859Z,40
2017-04-02T14:53:42.621Z,40
2017-04-02T14:54:51.620Z,40
2017-04-02T14:56:00.986Z,40
2017-04-02T14:57:10.356Z,40
2017-04-02T14:58:19.120Z,40
2017-04-02T14:59:27.814Z,40
2017-04-02T15:00:36.574Z,45
2017-04-02T15:01:45.382Z,45
2017-04-02T15:02:54.472Z,40
2017-04-02T15:04:03.734Z,40
2017-04-02T15:05:12.494Z,40
2017-04-02T15:06:21.294Z,40
2017-04-02T15:07:30.187Z,35
2017-04-02T15:08:39.176Z,35
2017-04-02T15:09:47.944Z,35
2017-04-02T15:10:56.718Z,35
2017-04-02T15:12:05.789Z,35
2017-04-02T15:13:14.552Z,35
2017-04-02T15:14:23.244Z,30
2017-04-02T15:15:31.998Z,30
2017-04-02T15:16:40.769Z,30
2017-04-02T15:17:49.527Z,30
2017-04-02T15:18:58.283Z,25
2017-04-02T15:20:07.502Z,25
2017-04-02T15:21:16.335Z,25
2017-04-02T15:22:25.395Z,25
2017-04-02T15:23:34.150Z,30
2017-04-02T15:24:43.046Z,30
2017-04-02T15:25:51.811Z,30
2017-04-02T15:27:00.818Z,30
2017-04-02T15:28:09.582Z,30
2017-04-02T15:29:18.352Z,30
2017-04-02T15:30:27.110Z,30
2017-04-02T15:31:36.216Z,30
2017-04-02T15:32:45.271Z,30
2017-04-02T15:33:53.959Z,35
2017-04-02T15:35:02.916Z,35
2017-04-02T15:36:11.677Z,35
2017-04-02T15:37:20.785Z,40
2017-04-02T15:38:29.841Z,35
2017-04-02T15:39:38.916Z,35
2017-04-02T15:40:47.995Z,35
2017-04-02T15:41:56.756Z,35
2017-04-02T15:43:05.517Z,35
2017-04-02T15:44:14.283Z,35
2017-04-02T15:45:23.044Z,30
2017-04-02T15:46:31.809Z,30
2017-04-02T15:47:40.499Z,30
2017-04-02T15:48:49.197Z,25
2017-04-02T15:49:57.891Z,25
2017-04-02T15:51:06.660Z,25
2017-04-02T15:52:15.359Z,25
2017-04-02T15:53:24.439Z,25
2017-04-02T15:54:33.509Z,25
2017-04-02T15:55:42.875Z,25
2017-04-02T15:56:52.187Z,25
2017-04-02T15:58:00.940Z,20
2017-04-02T15:59:10.011Z,20
2017-04-02T16:00:19.076Z,20
2017-04-02T16:01:28.969Z,20
2017-04-02T16:02:38.292Z,20
2017-04-02T16:03:47.055Z,20
2017-04-02T16:04:56.121Z,20
2017-04-02T16:06:05.425Z,20
2017-04-02T16:07:14.544Z,20
2017-04-02T16:08:23.609Z,20
2017-04-02T16:09:32.372Z,20
2017-04-02T16:10:41.121Z,20
2017-04-02T16:11:50.016Z,20
2017-04-02T16:12:58.779Z,20
2017-04-02T16:14:07.844Z,20
2017-04-02T16:15:16.648Z,20
2017-04-02T16:16:25.382Z,20
2017-04-02T16:17:34.437Z,20
2017-04-02T16:18:43.155Z,20
2017-04-02T16:19:52.222Z,20
2017-04-02T16:21:00.985Z,20